createdAt,value
2023-01-29T00:02:14.777Z,5.96
2023-01-29T00:04:46.443Z,5.96
2023-01-29T00:07:15.104Z,5.95
2023-01-29T00:09:44.665Z,5.94
2023-01-29T00:12:13.947Z,5.94
2023-01-29T00:14:42.422Z,5.94
2023-01-29T00:17:10.428Z,5.94
2023-01-29T00:19:37.036Z,5.95
2023-01-29T00:22:03.809Z,5.95
2023-01-29T00:24:30.387Z,5.94
2023-01-29T00:26:57.083Z,5.95
2023-01-29T00:29:23.641Z,5.94
2023-01-29T00:31:50.440Z,5.94
2023-01-29T00:34:17.268Z,5.94
2023-01-29T00:36:45.638Z,5.94
2023-01-29T00:39:12.428Z,5.93
2023-01-29T00:41:59.080Z,5.91
2023-01-29T00:44:45.635Z,5.93
2023-01-29T00:47:32.181Z,5.90
2023-01-29T00:50:00.664Z,5.90
2023-01-29T00:52:28.873Z,5.90
2023-01-29T00:54:58.535Z,5.89
2023-01-29T00:57:27.525Z,5.88
2023-01-29T00:59:54.582Z,5.86
2023-01-29T01:02:41.858Z,5.83
2023-01-29T01:05:14.338Z,5.82
2023-01-29T01:07:41.444Z,5.81
2023-01-29T01:10:28.458Z,5.82
2023-01-29T01:12:58.487Z,5.79
2023-01-29T01:15:28.921Z,5.79
2023-01-29T01:17:58.000Z,5.78
2023-01-29T01:20:27.594Z,5.75
2023-01-29T01:22:56.923Z,5.75
2023-01-29T01:25:27.001Z,5.71
2023-01-29T01:27:57.729Z,5.70
2023-01-29T01:30:27.183Z,5.69
2023-01-29T01:32:55.685Z,5.66
2023-01-29T01:35:24.493Z,5.65
2023-01-29T01:37:52.665Z,5.65
2023-01-29T01:40:24.555Z,5.61
2023-01-29T01:42:55.900Z,5.61
2023-01-29T01:45:35.702Z,5.55
2023-01-29T01:53:27.020Z,5.57
2023-01-29T01:56:00.432Z,5.57
2023-01-29T01:58:33.502Z,5.57
2023-01-29T02:01:01.487Z,5.55
2023-01-29T02:03:51.438Z,5.54
2023-01-29T02:06:37.941Z,5.44
2023-01-29T02:09:31.654Z,5.49
2023-01-29T02:11:58.396Z,5.49
2023-01-29T02:14:25.515Z,5.51
2023-01-29T02:16:52.304Z,5.49
2023-01-29T02:19:35.705Z,5.50
2023-01-29T02:22:12.387Z,5.42
2023-01-29T02:25:09.898Z,5.44
2023-01-29T02:30:41.207Z,5.44
2023-01-29T02:38:45.903Z,5.43
2023-01-29T02:43:59.727Z,5.37
2023-01-29T02:49:25.154Z,5.33
2023-01-29T02:52:02.844Z,5.32
2023-01-29T02:54:43.850Z,5.31
2023-01-29T02:57:20.832Z,5.27
2023-01-29T03:00:07.292Z,5.20
2023-01-29T03:02:43.333Z,5.23
2023-01-29T03:05:17.648Z,5.23
2023-01-29T03:07:52.397Z,5.23
2023-01-29T03:10:25.311Z,5.22
2023-01-29T03:12:57.792Z,5.22
2023-01-29T03:15:31.263Z,5.22
2023-01-29T03:18:06.129Z,5.21
2023-01-29T03:20:38.847Z,5.20
2023-01-29T03:23:13.644Z,5.18
2023-01-29T03:26:02.392Z,5.16
2023-01-29T03:28:50.412Z,5.10
2023-01-29T03:31:38.532Z,5.06
2023-01-29T03:34:16.667Z,5.00
2023-01-29T03:36:50.677Z,4.97
2023-01-29T03:39:17.648Z,4.92
2023-01-29T03:41:51.856Z,4.89
2023-01-29T03:47:05.028Z,4.84
2023-01-29T03:49:39.905Z,4.77
2023-01-29T03:52:18.053Z,4.79
2023-01-29T03:55:10.858Z,4.77
2023-01-29T03:57:45.655Z,4.80
2023-01-29T04:00:25.995Z,4.81
2023-01-29T04:03:07.981Z,4.82
2023-01-29T04:05:58.725Z,4.80
2023-01-29T04:08:30.421Z,4.84
2023-01-29T04:11:02.931Z,4.86
2023-01-29T04:13:33.834Z,4.86
2023-01-29T04:16:04.381Z,4.88
2023-01-29T04:18:31.547Z,4.86
2023-01-29T04:21:00.528Z,4.85
2023-01-29T04:23:27.893Z,4.86
2023-01-29T04:26:29.111Z,4.82
2023-01-29T04:32:20.076Z,4.82
2023-01-29T04:35:21.894Z,4.77
2023-01-29T04:40:39.592Z,4.80
2023-01-29T04:43:15.307Z,4.82
2023-01-29T04:54:23.639Z,4.82
2023-01-29T04:59:33.861Z,4.85
2023-01-29T05:02:02.592Z,4.84
2023-01-29T05:04:33.274Z,4.84
2023-01-29T05:07:05.139Z,4.83
2023-01-29T05:09:33.312Z,4.81
2023-01-29T05:12:01.131Z,4.82
2023-01-29T05:14:31.133Z,4.79
2023-01-29T05:17:01.728Z,4.80
2023-01-29T05:19:28.370Z,4.79
2023-01-29T05:21:55.574Z,4.80
2023-01-29T05:24:24.714Z,4.79
2023-01-29T05:27:13.512Z,4.78
2023-01-29T05:29:45.440Z,4.77
2023-01-29T05:32:12.634Z,4.77
2023-01-29T05:34:39.428Z,4.76
2023-01-29T05:37:06.182Z,4.77
2023-01-29T05:39:33.263Z,4.76
2023-01-29T05:42:00.188Z,4.75
2023-01-29T05:44:26.833Z,4.76
2023-01-29T05:46:53.599Z,4.76
2023-01-29T05:49:20.735Z,4.78
2023-01-29T05:51:47.518Z,4.77
2023-01-29T05:54:14.602Z,4.78
2023-01-29T05:56:41.297Z,4.77
2023-01-29T05:59:07.971Z,4.79
2023-01-29T06:01:34.801Z,4.74
2023-01-29T06:04:01.834Z,4.76
2023-01-29T06:06:28.502Z,4.76
2023-01-29T06:08:56.373Z,4.77
2023-01-29T06:11:23.406Z,4.78
2023-01-29T06:13:50.593Z,4.78
2023-01-29T06:16:17.532Z,4.77
2023-01-29T06:18:44.320Z,4.77
2023-01-29T06:21:13.872Z,4.77
2023-01-29T06:23:40.855Z,4.79
2023-01-29T06:26:11.083Z,4.81
2023-01-29T06:28:38.696Z,4.84
2023-01-29T06:31:37.224Z,4.84
2023-01-29T06:33:53.832Z,4.84
2023-01-29T06:36:20.641Z,4.84
2023-01-29T06:38:47.571Z,4.84
2023-01-29T06:41:18.170Z,4.85
2023-01-29T06:43:45.710Z,4.84
2023-01-29T06:46:12.312Z,4.85
2023-01-29T06:48:39.264Z,4.84
2023-01-29T06:51:08.371Z,4.86
2023-01-29T06:53:36.248Z,4.85
2023-01-29T06:56:03.792Z,4.84
2023-01-29T06:58:30.626Z,4.83
2023-01-29T07:01:09.513Z,4.82
2023-01-29T07:03:36.830Z,4.82
2023-01-29T07:06:04.494Z,4.82
2023-01-29T07:08:31.336Z,4.80
2023-01-29T07:11:00.741Z,4.80
2023-01-29T07:13:27.787Z,4.79
2023-01-29T07:15:54.403Z,4.79
2023-01-29T07:18:21.086Z,4.78
2023-01-29T07:20:47.732Z,4.78
2023-01-29T07:23:15.574Z,4.79
2023-01-29T07:25:42.581Z,4.79
2023-01-29T07:28:09.459Z,4.79
2023-01-29T07:30:36.376Z,4.81
2023-01-29T07:33:07.583Z,4.85
2023-01-29T07:35:43.596Z,4.81
2023-01-29T07:38:11.287Z,4.83
2023-01-29T07:40:38.325Z,4.84
2023-01-29T07:43:07.420Z,4.86
2023-01-29T07:45:36.462Z,4.87
2023-01-29T07:48:05.289Z,4.88
2023-01-29T07:50:33.859Z,4.91
2023-01-29T07:53:00.942Z,4.90
2023-01-29T07:55:28.070Z,4.93
2023-01-29T07:57:59.850Z,4.92
2023-01-29T08:00:27.071Z,4.93
2023-01-29T08:02:53.798Z,4.94
2023-01-29T08:05:20.898Z,4.97
2023-01-29T08:08:05.765Z,4.96
2023-01-29T08:10:33.848Z,4.97
2023-01-29T08:13:01.816Z,4.98
2023-01-29T08:15:29.577Z,5.00
2023-01-29T08:20:43.494Z,5.02
2023-01-29T08:23:15.556Z,5.05
2023-01-29T08:25:42.292Z,5.06
2023-01-29T08:28:09.955Z,5.07
2023-01-29T08:30:36.786Z,5.09
2023-01-29T08:33:04.918Z,5.10
2023-01-29T08:35:31.795Z,5.13
2023-01-29T08:38:02.500Z,5.13
2023-01-29T08:40:33.252Z,5.19
2023-01-29T08:43:03.031Z,5.23
2023-01-29T08:45:34.613Z,5.24
2023-01-29T08:48:01.434Z,5.27
2023-01-29T08:50:30.718Z,5.30
2023-01-29T08:52:59.385Z,5.32
2023-01-29T08:55:27.153Z,5.37
2023-01-29T08:57:54.567Z,5.40
2023-01-29T09:00:21.792Z,5.44
2023-01-29T09:02:48.486Z,5.44
2023-01-29T09:05:15.654Z,5.48
2023-01-29T09:07:42.877Z,5.51
2023-01-29T09:10:10.662Z,5.56
2023-01-29T09:12:37.329Z,5.56
2023-01-29T09:15:04.370Z,5.60
2023-01-29T09:17:30.997Z,5.63
2023-01-29T09:19:58.933Z,5.66
2023-01-29T09:22:25.636Z,5.70
2023-01-29T09:24:52.682Z,5.74
2023-01-29T09:27:19.490Z,5.74
2023-01-29T09:29:46.591Z,5.75
2023-01-29T09:32:13.214Z,5.77
2023-01-29T09:34:39.787Z,5.81
2023-01-29T09:37:06.973Z,5.81
2023-01-29T09:39:33.565Z,5.85
2023-01-29T09:47:20.677Z,6.29
2023-01-29T09:49:52.398Z,6.12
2023-01-29T09:52:26.336Z,6.07
2023-01-29T09:57:42.294Z,6.08
2023-01-29T10:00:14.751Z,6.00
2023-01-29T10:14:39.700Z,6.56
2023-01-29T10:20:26.747Z,6.48
2023-01-29T10:25:50.366Z,6.54
2023-01-29T10:28:20.965Z,6.60
2023-01-29T10:30:50.907Z,6.61
2023-01-29T10:33:24.949Z,6.65
2023-01-29T10:35:57.832Z,6.69
2023-01-29T10:47:11.100Z,6.84
2023-01-29T10:52:55.098Z,6.86
2023-01-29T11:00:54.836Z,6.96
2023-01-29T11:03:29.164Z,6.99
2023-01-29T11:08:41.054Z,7.03
2023-01-29T11:11:13.078Z,7.09
2023-01-29T11:13:47.585Z,7.13
2023-01-29T11:16:15.062Z,7.20
2023-01-29T11:18:52.590Z,7.25
2023-01-29T11:21:19.638Z,7.30
2023-01-29T11:23:47.174Z,7.28
2023-01-29T11:26:19.316Z,7.25
2023-01-29T11:28:48.963Z,7.22
2023-01-29T11:34:16.973Z,7.24
2023-01-29T11:36:45.302Z,7.36
2023-01-29T11:42:03.727Z,7.59
2023-01-29T11:49:54.042Z,7.93
2023-01-29T11:52:24.139Z,8.00
2023-01-29T11:54:55.797Z,8.05
2023-01-29T11:57:27.683Z,8.15
2023-01-29T11:59:57.283Z,8.21
2023-01-29T12:02:36.636Z,8.24
2023-01-29T12:05:14.561Z,8.33
2023-01-29T12:07:43.795Z,8.39
2023-01-29T12:15:49.142Z,8.46
2023-01-29T12:21:12.249Z,8.45
2023-01-29T12:24:07.665Z,8.45
2023-01-29T12:26:40.426Z,8.53
2023-01-29T12:29:34.326Z,8.61
2023-01-29T12:32:12.690Z,8.76
2023-01-29T12:37:46.243Z,9.21
2023-01-29T12:40:16.175Z,9.20
2023-01-29T12:42:48.277Z,9.25
2023-01-29T12:45:25.347Z,9.29
2023-01-29T12:47:56.299Z,9.28
2023-01-29T12:50:29.267Z,9.25
2023-01-29T12:55:45.418Z,9.03
2023-01-29T12:58:16.416Z,9.02
2023-01-29T13:00:46.577Z,9.03
2023-01-29T13:08:37.538Z,9.12
2023-01-29T13:11:12.265Z,9.11
2023-01-29T13:13:54.145Z,9.13
2023-01-29T13:16:26.604Z,9.14
2023-01-29T13:18:58.018Z,9.19
2023-01-29T13:21:29.529Z,9.22
2023-01-29T13:24:01.821Z,9.15
2023-01-29T13:26:29.098Z,9.15
2023-01-29T13:28:56.142Z,9.09
2023-01-29T13:31:34.938Z,8.98
2023-01-29T13:34:28.528Z,9.00
2023-01-29T13:36:59.434Z,9.05
2023-01-29T13:39:34.327Z,8.96
2023-01-29T13:42:03.855Z,8.94
2023-01-29T13:44:37.881Z,8.94
2023-01-29T13:47:07.989Z,8.89
2023-01-29T13:49:40.429Z,8.90
2023-01-29T13:55:21.450Z,8.91
2023-01-29T13:57:50.141Z,8.91
2023-01-29T14:11:35.926Z,9.12
2023-01-29T14:14:42.307Z,9.06
2023-01-29T14:17:09.027Z,9.07
2023-01-29T14:19:35.644Z,9.03
2023-01-29T14:22:02.405Z,8.96
2023-01-29T14:24:31.145Z,8.98
2023-01-29T14:26:57.920Z,8.98
2023-01-29T14:29:34.795Z,9.02
2023-01-29T14:32:24.999Z,8.95
2023-01-29T14:34:55.712Z,8.88
2023-01-29T14:37:31.356Z,8.95
2023-01-29T14:40:07.636Z,8.95
2023-01-29T14:42:37.960Z,8.96
2023-01-29T14:53:16.751Z,9.08
2023-01-29T14:55:48.717Z,9.10
2023-01-29T14:58:27.444Z,9.13
2023-01-29T15:00:59.118Z,9.17
2023-01-29T15:03:46.238Z,9.14
2023-01-29T15:06:24.200Z,9.18
2023-01-29T15:09:03.080Z,9.19
2023-01-29T15:11:40.932Z,9.19
2023-01-29T15:14:23.965Z,9.17
2023-01-29T15:19:35.376Z,9.16
2023-01-29T15:22:08.757Z,9.16
2023-01-29T15:24:37.254Z,9.19
2023-01-29T15:27:06.639Z,9.16
2023-01-29T15:29:33.858Z,9.14
2023-01-29T15:32:01.745Z,9.11
2023-01-29T15:34:28.538Z,9.09
2023-01-29T15:36:55.355Z,9.07
2023-01-29T15:39:24.674Z,9.05
2023-01-29T15:42:09.329Z,8.98
2023-01-29T15:44:35.952Z,8.97
2023-01-29T15:47:02.887Z,8.96
2023-01-29T15:49:33.307Z,8.95
2023-01-29T15:52:05.391Z,8.89
2023-01-29T15:54:34.636Z,8.86
2023-01-29T15:57:03.087Z,8.80
2023-01-29T15:59:34.753Z,8.77
2023-01-29T16:02:28.543Z,8.68
2023-01-29T16:04:55.861Z,8.68
2023-01-29T16:07:22.809Z,8.65
2023-01-29T16:09:51.422Z,8.61
2023-01-29T16:12:18.637Z,8.57
2023-01-29T16:14:46.219Z,8.52
2023-01-29T16:20:01.337Z,8.42
2023-01-29T16:22:34.811Z,8.38
2023-01-29T16:25:04.798Z,8.34
2023-01-29T16:27:32.928Z,8.32
2023-01-29T16:30:02.245Z,8.26
2023-01-29T16:32:30.730Z,8.22
2023-01-29T16:35:00.107Z,8.17
2023-01-29T16:40:28.419Z,8.01
2023-01-29T16:46:05.514Z,7.93
2023-01-29T16:48:35.392Z,7.90
2023-01-29T16:51:31.447Z,7.79
2023-01-29T16:54:03.494Z,7.79
2023-01-29T16:56:32.443Z,7.75
2023-01-29T16:59:00.324Z,7.68
2023-01-29T17:01:29.715Z,7.66
2023-01-29T17:04:07.643Z,7.60
2023-01-29T17:06:35.246Z,7.55
2023-01-29T17:09:04.060Z,7.51
2023-01-29T17:11:35.017Z,7.44
2023-01-29T17:14:02.024Z,7.41
2023-01-29T17:16:32.082Z,7.36
2023-01-29T17:19:00.697Z,7.30
2023-01-29T17:21:29.343Z,7.30
2023-01-29T17:23:56.038Z,7.26
2023-01-29T17:26:24.705Z,7.22
2023-01-29T17:28:52.707Z,7.19
2023-01-29T17:31:19.386Z,7.16
2023-01-29T17:33:46.282Z,7.14
2023-01-29T17:36:16.436Z,7.11
2023-01-29T17:38:43.748Z,7.08
2023-01-29T17:43:47.553Z,7.01
2023-01-29T17:46:16.736Z,6.97
2023-01-29T17:48:44.098Z,6.93
2023-01-29T17:51:16.019Z,6.89
2023-01-29T17:53:46.230Z,6.86
2023-01-29T17:56:30.277Z,6.80
2023-01-29T17:58:56.900Z,6.78
2023-01-29T18:01:23.812Z,6.74
2023-01-29T18:03:50.778Z,6.72
2023-01-29T18:06:27.373Z,6.69
2023-01-29T18:08:54.266Z,6.72
2023-01-29T18:11:20.809Z,6.72
2023-01-29T18:13:47.366Z,6.74
2023-01-29T18:16:14.139Z,6.76
2023-01-29T18:18:41.257Z,6.76
2023-01-29T18:21:08.081Z,6.77
2023-01-29T18:23:35.799Z,6.77
2023-01-29T18:26:02.524Z,6.78
2023-01-29T18:28:29.856Z,6.78
2023-01-29T18:30:56.668Z,6.79
2023-01-29T18:33:25.027Z,6.77
2023-01-29T18:35:51.724Z,6.77
2023-01-29T18:38:19.101Z,6.76
2023-01-29T18:40:46.491Z,6.73
2023-01-29T18:43:15.596Z,6.74
2023-01-29T18:45:42.816Z,6.71
2023-01-29T18:48:09.508Z,6.71
2023-01-29T18:50:36.877Z,6.71
2023-01-29T18:53:04.709Z,6.67
2023-01-29T18:55:31.407Z,6.67
2023-01-29T18:58:27.465Z,6.69
2023-01-29T19:00:47.165Z,6.68
2023-01-29T19:03:13.913Z,6.66
2023-01-29T19:05:40.467Z,6.65
2023-01-29T19:08:07.633Z,6.64
2023-01-29T19:10:34.812Z,6.61
2023-01-29T19:13:02.182Z,6.55
2023-01-29T19:15:28.973Z,6.49
2023-01-29T19:17:56.747Z,6.43
2023-01-29T19:20:23.484Z,6.41
2023-01-29T19:22:50.395Z,6.36
2023-01-29T19:25:19.721Z,6.32
2023-01-29T19:27:46.899Z,6.29
2023-01-29T19:30:13.705Z,6.26
2023-01-29T19:32:40.716Z,6.24
2023-01-29T19:35:07.515Z,6.24
2023-01-29T19:37:34.133Z,6.22
2023-01-29T19:40:00.675Z,6.20
2023-01-29T19:42:28.267Z,6.15
2023-01-29T19:44:54.887Z,6.16
2023-01-29T19:47:22.308Z,6.15
2023-01-29T19:49:49.898Z,6.21
2023-01-29T19:52:51.076Z,6.28
2023-01-29T19:55:21.424Z,6.33
2023-01-29T19:57:49.540Z,6.43
2023-01-29T20:00:18.653Z,6.46
2023-01-29T20:02:46.109Z,6.54
2023-01-29T20:05:17.419Z,6.59
2023-01-29T20:07:45.366Z,6.64
2023-01-29T20:10:17.911Z,6.67
2023-01-29T20:12:46.664Z,6.73
2023-01-29T20:15:15.051Z,6.73
2023-01-29T20:17:42.189Z,6.77
2023-01-29T20:20:10.626Z,6.75
2023-01-29T20:22:37.291Z,6.79
2023-01-29T20:25:04.496Z,6.79
2023-01-29T20:27:32.263Z,6.79
2023-01-29T20:29:59.757Z,6.77
2023-01-29T20:32:26.953Z,6.74
2023-01-29T20:34:54.357Z,6.72
2023-01-29T20:37:21.826Z,6.64
2023-01-29T20:39:49.123Z,6.59
2023-01-29T20:42:15.911Z,6.52
2023-01-29T20:44:42.574Z,6.48
2023-01-29T20:47:09.521Z,6.46
2023-01-29T20:49:36.305Z,6.42
2023-01-29T20:52:03.821Z,6.40
2023-01-29T20:54:33.424Z,6.38
2023-01-29T20:57:00.905Z,6.33
2023-01-29T20:59:29.615Z,6.33
2023-01-29T21:01:56.784Z,6.30
2023-01-29T21:04:23.967Z,6.29
2023-01-29T21:06:51.573Z,6.28
2023-01-29T21:09:18.815Z,6.25
2023-01-29T21:11:46.631Z,6.24
2023-01-29T21:14:14.733Z,6.21
2023-01-29T21:16:42.204Z,6.24
2023-01-29T21:19:10.659Z,6.24
2023-01-29T21:21:37.529Z,6.22
2023-01-29T21:24:04.984Z,6.22
2023-01-29T21:26:31.680Z,6.23
2023-01-29T21:28:58.349Z,6.24
2023-01-29T21:31:25.015Z,6.24
2023-01-29T21:33:51.668Z,6.23
2023-01-29T21:36:18.292Z,6.23
2023-01-29T21:38:44.864Z,6.23
2023-01-29T21:41:11.874Z,6.21
2023-01-29T21:43:39.068Z,6.24
2023-01-29T21:46:16.323Z,6.24
2023-01-29T21:48:43.277Z,6.24
2023-01-29T21:51:09.928Z,6.23
2023-01-29T21:53:36.844Z,6.26
2023-01-29T21:56:05.606Z,6.30
2023-01-29T21:58:32.305Z,6.35
2023-01-29T22:01:35.126Z,6.38
2023-01-29T22:03:47.419Z,6.43
2023-01-29T22:06:14.464Z,6.47
2023-01-29T22:08:41.045Z,6.48
2023-01-29T22:11:08.835Z,6.49
2023-01-29T22:13:35.594Z,6.44
2023-01-29T22:16:02.211Z,6.45
2023-01-29T22:18:28.937Z,6.45
2023-01-29T22:20:56.677Z,6.47
2023-01-29T22:23:24.273Z,6.47
2023-01-29T22:25:50.974Z,6.46
2023-01-29T22:28:18.615Z,6.49
2023-01-29T22:30:45.632Z,6.52
2023-01-29T22:33:12.814Z,6.53
2023-01-29T22:35:39.676Z,6.54
2023-01-29T22:38:06.679Z,6.55
2023-01-29T22:40:33.246Z,6.56
2023-01-29T22:42:59.843Z,6.56
2023-01-29T22:45:27.116Z,6.58
2023-01-29T22:47:53.652Z,6.61
2023-01-29T22:50:20.587Z,6.61
2023-01-29T22:52:54.105Z,6.60
2023-01-29T22:55:21.038Z,6.60
2023-01-29T22:57:50.063Z,6.62
2023-01-29T23:00:17.748Z,6.61
2023-01-29T23:02:46.832Z,6.63
2023-01-29T23:05:13.463Z,6.67
2023-01-29T23:07:40.375Z,6.68
2023-01-29T23:10:07.764Z,6.72
2023-01-29T23:12:34.441Z,6.75
2023-01-29T23:15:01.110Z,6.78
2023-01-29T23:17:27.999Z,6.78
2023-01-29T23:19:54.581Z,6.85
2023-01-29T23:22:23.865Z,6.87
2023-01-29T23:24:50.761Z,6.89
2023-01-29T23:27:17.810Z,6.92
2023-01-29T23:29:47.024Z,6.94
2023-01-29T23:32:17.810Z,6.98
2023-01-29T23:34:44.718Z,6.97
2023-01-29T23:37:11.616Z,7.01
2023-01-29T23:39:38.366Z,7.03
2023-01-29T23:42:05.419Z,7.06
2023-01-29T23:44:32.098Z,7.05
2023-01-29T23:46:59.324Z,7.04
2023-01-29T23:49:26.153Z,7.07
2023-01-29T23:51:53.173Z,7.09
2023-01-29T23:54:20.019Z,7.08
2023-01-29T23:56:46.662Z,7.07
2023-01-29T23:59:13.444Z,7.08
